Wilson Lista — 8PRW — position and weather

sailwx.info

Track history (hours):
 
Tides and Currents Weather Stations Pressure Air Temp Water Temp Dewpoint Dewpoint Depression Visibility Wind Speed Wind Dir Waves Ship Positions

Wilson Lista

Last reported at 2015-Mar-14 13:29 UTC. Time now 2015-Mar-27 20:57 UTC.
Position N 58°01' E 005°57'.
Warning: this ship's position is 13 days out of date.

Length 88 m; draft 5.2 m.

Type: Cargo ship. MMSI: 314188000.

Date/timePositionNaut miles runAvg speedWind from/ knotsBaromVisibWave heightAir tempDewpointWater temp
2015-Mar-14 13:29N 58°01' E 005°57'141 9.4
2015-Mar-13 22:29N 57°49' E 010°21'10 9.7
2015-Mar-13 21:29N 57°49' E 010°39'9 9.9
2015-Mar-13 20:33N 57°46' E 010°55'10 9.7
2015-Mar-13 19:33N 57°42' E 011°12'1010.1
2015-Mar-13 18:33N 57°36' E 011°28'7 6.8
2015-Mar-13 17:31N 57°33' E 011°39'0 0.0
2015-Mar-13 16:27N 57°33' E 011°39'0 0.0
2015-Mar-13 15:33N 57°33' E 011°39'3 2.6
2015-Mar-13 14:33N 57°30' E 011°38'1010.2
2015-Mar-13 13:33N 57°20' E 011°38'19 9.7
2015-Mar-13 11:33N 57°01' E 011°44'10 9.8
2015-Mar-13 10:33N 56°52' E 011°50'10 9.9
2015-Mar-13 09:33N 56°42' E 011°56'1110.1
2015-Mar-13 08:29N 56°32' E 011°60'1410.3
2015-Mar-13 07:08N 56°18' E 012°05'610.4
2015-Mar-13 06:33N 56°15' E 012°14'10 9.7
2015-Mar-13 05:33N 56°09' E 012°28'1111.2
2015-Mar-13 04:34N 56°01' E 012°41'10 9.9
2015-Mar-13 03:33N 55°51' E 012°44'1010.1
2015-Mar-13 02:33N 55°41' E 012°41'1010.1
2015-Mar-13 01:33N 55°31' E 012°43'9 9.3
2015-Mar-13 00:33N 55°22' E 012°41'8 7.9
2015-Mar-12 23:33N 55°16' E 012°52'10 9.3
2015-Mar-12 22:29N 55°15' E 013°09'13 9.4
2015-Mar-12 21:04N 55°15' E 013°32'5 9.5
2015-Mar-12 20:33N 55°14' E 013°41'38 8.6
2015-Mar-12 16:07N 55°29' E 014°42'139 8.9
2015-Mar-12 00:32N 57°13' E 017°29'  
2015-Mar-06 11:31N 55°34' E 015°11'9 9.0
2015-Mar-06 10:33N 55°30' E 014°58'9 9.1
2015-Mar-06 09:33N 55°25' E 014°44'9 9.2
2015-Mar-06 08:33N 55°18' E 014°33'10 9.6
2015-Mar-06 07:33N 55°11' E 014°23'9 9.4
2015-Mar-06 06:33N 55°03' E 014°12'9 8.8
2015-Mar-06 05:33N 54°59' E 013°59'47 9.4
2015-Mar-06 00:32N 54°44' E 012°42'11 9.5
2015-Mar-05 23:25N 54°38' E 012°27'8 9.2
2015-Mar-05 22:33N 54°32' E 012°17'9 9.1
2015-Mar-05 21:33N 54°25' E 012°09'9 9.3
2015-Mar-05 20:33N 54°25' E 011°52'10 9.5
2015-Mar-05 19:33N 54°27' E 011°37'10 9.7
2015-Mar-05 18:33N 54°32' E 011°22'1010.0
2015-Mar-05 17:33N 54°35' E 011°06'19 9.4
2015-Mar-05 15:33N 54°33' E 010°33'9 9.3
2015-Mar-05 14:33N 54°29' E 010°19'9 8.8
2015-Mar-05 13:33N 54°22' E 010°10'1 1.3
2015-Mar-05 12:33N 54°22' E 010°08'6 5.7
2015-Mar-05 11:33N 54°21' E 009°58'8 7.9
2015-Mar-05 10:32N 54°20' E 009°44'19 6.0
2015-Mar-05 07:22N 54°08' E 009°20'7 8.6
2015-Mar-05 06:34N 54°01' E 009°18'8 8.1
2015-Mar-05 05:34N 53°54' E 009°10'0 0.3
2015-Mar-05 04:33N 53°54' E 009°09'0 0.0
2015-Mar-05 03:33N 53°54' E 009°09'0 0.0
2015-Mar-05 02:32N 53°54' E 009°09'0 0.0
2015-Mar-05 01:32N 53°54' E 009°09'0 0.0
2015-Mar-05 00:31N 53°54' E 009°09'0 0.0
2015-Mar-04 23:31N 53°54' E 009°09'1 0.8
2015-Mar-04 22:33N 53°54' E 009°09'4 4.5
2015-Mar-04 21:33N 53°52' E 009°02'9 9.2
2015-Mar-04 20:33N 53°51' E 008°46'9 9.4
2015-Mar-04 19:33N 53°58' E 008°36'9 8.8
2015-Mar-04 18:33N 53°59' E 008°21'9 9.1
2015-Mar-04 17:33N 53°59' E 008°06'8 8.4
2015-Mar-04 16:34N 53°57' E 007°52'8 7.9
2015-Mar-04 15:33N 53°55' E 007°38'7 7.5
2015-Mar-04 14:33N 53°53' E 007°26'8 7.7
2015-Mar-04 13:31N 53°52' E 007°13'  
Track history (hours):
 
Tides and Currents Weather Stations Pressure Air Temp Water Temp Dewpoint Dewpoint Depression Visibility Wind Speed Wind Dir Waves Ship Positions

Wilson Lista

Last reported at 2015-Mar-14 13:29 UTC. Time now 2015-Mar-27 20:57 UTC.
Position N 58°01' E 005°57'.
Warning: this ship's position is 13 days out of date.

Length 88 m; draft 5.2 m.

Type: Cargo ship. MMSI: 314188000.

Date/timePositionNaut miles runAvg speedWind from/ knotsBaromVisibWave heightAir tempDewpointWater temp
2015-Mar-14 13:29N 58°01' E 005°57'141 9.4
2015-Mar-13 22:29N 57°49' E 010°21'10 9.7
2015-Mar-13 21:29N 57°49' E 010°39'9 9.9
2015-Mar-13 20:33N 57°46' E 010°55'10 9.7
2015-Mar-13 19:33N 57°42' E 011°12'1010.1
2015-Mar-13 18:33N 57°36' E 011°28'7 6.8
2015-Mar-13 17:31N 57°33' E 011°39'0 0.0
2015-Mar-13 16:27N 57°33' E 011°39'0 0.0
2015-Mar-13 15:33N 57°33' E 011°39'3 2.6
2015-Mar-13 14:33N 57°30' E 011°38'1010.2
2015-Mar-13 13:33N 57°20' E 011°38'19 9.7
2015-Mar-13 11:33N 57°01' E 011°44'10 9.8
2015-Mar-13 10:33N 56°52' E 011°50'10 9.9
2015-Mar-13 09:33N 56°42' E 011°56'1110.1
2015-Mar-13 08:29N 56°32' E 011°60'1410.3
2015-Mar-13 07:08N 56°18' E 012°05'610.4
2015-Mar-13 06:33N 56°15' E 012°14'10 9.7
2015-Mar-13 05:33N 56°09' E 012°28'1111.2
2015-Mar-13 04:34N 56°01' E 012°41'10 9.9
2015-Mar-13 03:33N 55°51' E 012°44'1010.1
2015-Mar-13 02:33N 55°41' E 012°41'1010.1
2015-Mar-13 01:33N 55°31' E 012°43'9 9.3
2015-Mar-13 00:33N 55°22' E 012°41'8 7.9
2015-Mar-12 23:33N 55°16' E 012°52'10 9.3
2015-Mar-12 22:29N 55°15' E 013°09'13 9.4
2015-Mar-12 21:04N 55°15' E 013°32'5 9.5
2015-Mar-12 20:33N 55°14' E 013°41'38 8.6
2015-Mar-12 16:07N 55°29' E 014°42'139 8.9
2015-Mar-12 00:32N 57°13' E 017°29'  
2015-Mar-06 11:31N 55°34' E 015°11'9 9.0
2015-Mar-06 10:33N 55°30' E 014°58'9 9.1
2015-Mar-06 09:33N 55°25' E 014°44'9 9.2
2015-Mar-06 08:33N 55°18' E 014°33'10 9.6
2015-Mar-06 07:33N 55°11' E 014°23'9 9.4
2015-Mar-06 06:33N 55°03' E 014°12'9 8.8
2015-Mar-06 05:33N 54°59' E 013°59'47 9.4
2015-Mar-06 00:32N 54°44' E 012°42'11 9.5
2015-Mar-05 23:25N 54°38' E 012°27'8 9.2
2015-Mar-05 22:33N 54°32' E 012°17'9 9.1
2015-Mar-05 21:33N 54°25' E 012°09'9 9.3
2015-Mar-05 20:33N 54°25' E 011°52'10 9.5
2015-Mar-05 19:33N 54°27' E 011°37'10 9.7
2015-Mar-05 18:33N 54°32' E 011°22'1010.0
2015-Mar-05 17:33N 54°35' E 011°06'19 9.4
2015-Mar-05 15:33N 54°33' E 010°33'9 9.3
2015-Mar-05 14:33N 54°29' E 010°19'9 8.8
2015-Mar-05 13:33N 54°22' E 010°10'1 1.3
2015-Mar-05 12:33N 54°22' E 010°08'6 5.7
2015-Mar-05 11:33N 54°21' E 009°58'8 7.9
2015-Mar-05 10:32N 54°20' E 009°44'19 6.0
2015-Mar-05 07:22N 54°08' E 009°20'7 8.6
2015-Mar-05 06:34N 54°01' E 009°18'8 8.1
2015-Mar-05 05:34N 53°54' E 009°10'0 0.3
2015-Mar-05 04:33N 53°54' E 009°09'0 0.0
2015-Mar-05 03:33N 53°54' E 009°09'0 0.0
2015-Mar-05 02:32N 53°54' E 009°09'0 0.0
2015-Mar-05 01:32N 53°54' E 009°09'0 0.0
2015-Mar-05 00:31N 53°54' E 009°09'0 0.0
2015-Mar-04 23:31N 53°54' E 009°09'1 0.8
2015-Mar-04 22:33N 53°54' E 009°09'4 4.5
2015-Mar-04 21:33N 53°52' E 009°02'9 9.2
2015-Mar-04 20:33N 53°51' E 008°46'9 9.4
2015-Mar-04 19:33N 53°58' E 008°36'9 8.8
2015-Mar-04 18:33N 53°59' E 008°21'9 9.1
2015-Mar-04 17:33N 53°59' E 008°06'8 8.4
2015-Mar-04 16:34N 53°57' E 007°52'8 7.9
2015-Mar-04 15:33N 53°55' E 007°38'7 7.5
2015-Mar-04 14:33N 53°53' E 007°26'8 7.7
2015-Mar-04 13:31N 53°52' E 007°13'  

Dump ship's entire track history